Time;durP1;ratioP1;P1;durP2;ratioP2;P2;SDS_P1;SDS_P2;PMS_P1;PMS_P2;Temp;Humidity;BMP_temperature;BMP_pressure;BME280_temperature;BME280_humidity;BME280_pressure;Samples;Min_cycle;Max_cycle;Signal;HPM_P1;HPM_P2
2022/03/11 00:01:20;;;;;;;19.90;9.33;;;1.80;72.80;;;;;;5042607;28;20528;-47
2022/03/11 00:03:46;;;;;;;14.70;9.20;;;1.80;73.00;;;;;;5042525;28;20509;-47
2022/03/11 00:06:13;;;;;;;16.27;9.40;;;1.70;73.20;;;;;;5043311;28;20482;-47
2022/03/11 00:08:40;;;;;;;37.93;13.70;;;1.60;73.30;;;;;;5039395;28;20981;-48
2022/03/11 00:11:06;;;;;;;41.87;18.47;;;1.60;73.20;;;;;;5042769;28;20486;-47
2022/03/11 00:13:34;;;;;;;15.67;11.50;;;1.40;73.10;;;;;;5043502;28;20494;-47
2022/03/11 00:16:02;;;;;;;30.43;11.10;;;1.40;73.90;;;;;;5043519;28;20558;-48
2022/03/11 00:18:29;;;;;;;14.37;9.03;;;1.40;74.20;;;;;;5041469;28;20494;-47
2022/03/11 00:20:56;;;;;;;16.43;9.93;;;1.40;74.50;;;;;;5039682;28;20475;-47
2022/03/11 00:23:23;;;;;;;27.87;11.07;;;1.50;74.00;;;;;;5041529;28;20521;-47
2022/03/11 00:25:49;;;;;;;21.00;10.80;;;1.40;73.30;;;;;;5040046;28;20568;-50
2022/03/11 00:28:16;;;;;;;14.40;9.40;;;1.40;73.50;;;;;;5039568;28;21404;-47
2022/03/11 00:30:43;;;;;;;24.00;10.53;;;1.30;73.40;;;;;;5042355;28;20478;-47
2022/03/11 00:33:11;;;;;;;19.80;10.07;;;1.40;73.30;;;;;;5042458;28;20476;-47
2022/03/11 00:35:38;;;;;;;18.93;11.00;;;1.40;73.70;;;;;;5043083;28;20486;-47
2022/03/11 00:38:05;;;;;;;23.73;9.97;;;1.40;74.00;;;;;;5041410;28;20488;-47
2022/03/11 00:40:31;;;;;;;16.73;9.73;;;1.40;73.70;;;;;;5041378;28;20498;-46
2022/03/11 00:42:58;;;;;;;22.77;10.67;;;1.50;73.30;;;;;;5041596;28;20489;-46
2022/03/11 00:45:25;;;;;;;31.43;10.33;;;1.50;72.70;;;;;;5043771;28;20491;-46
2022/03/11 00:47:52;;;;;;;18.97;10.93;;;1.40;72.90;;;;;;5032452;28;20479;-47
2022/03/11 00:50:22;;;;;;;22.90;12.70;;;1.30;73.20;;;;;;5058506;28;20474;-46
2022/03/11 00:52:48;;;;;;;26.10;11.37;;;1.30;73.20;;;;;;5041427;28;20470;-45
2022/03/11 00:55:15;;;;;;;19.67;10.57;;;1.30;73.30;;;;;;5046047;28;20928;-45
2022/03/11 00:57:42;;;;;;;18.53;10.13;;;1.20;73.80;;;;;;5039257;28;21079;-46
2022/03/11 01:00:09;;;;;;;27.33;11.03;;;1.20;73.80;;;;;;5035263;28;20494;-45
2022/03/11 01:02:37;;;;;;;13.17;10.10;;;1.20;73.80;;;;;;5041024;28;20485;-45
2022/03/11 01:05:05;;;;;;;17.80;10.23;;;1.20;73.60;;;;;;5041662;28;20486;-46
2022/03/11 01:07:34;;;;;;;23.40;10.60;;;1.20;73.20;;;;;;5039360;28;20485;-45
2022/03/11 01:10:01;;;;;;;17.33;9.50;;;1.20;73.30;;;;;;5040569;28;21020;-46
2022/03/11 01:12:28;;;;;;;14.73;9.50;;;;;;;;;;5040415;28;21041;-46
2022/03/11 01:14:54;;;;;;;23.20;10.47;;;1.10;73.60;;;;;;5041901;28;20475;-46
2022/03/11 01:17:21;;;;;;;19.40;10.27;;;1.20;73.20;;;;;;5037017;28;21065;-46
2022/03/11 01:19:48;;;;;;;18.40;10.60;;;;;;;;;;5029159;28;20478;-46
2022/03/11 01:22:15;;;;;;;16.63;9.53;;;1.10;73.40;;;;;;5038351;28;20487;-46
2022/03/11 01:24:43;;;;;;;16.90;9.80;;;1.10;73.50;;;;;;5042211;28;20932;-45
2022/03/11 01:27:10;;;;;;;15.63;8.93;;;1.20;73.50;;;;;;5040086;28;20486;-46
2022/03/11 01:29:37;;;;;;;21.20;11.20;;;1.10;73.50;;;;;;5041154;28;20487;-46
2022/03/11 01:32:04;;;;;;;22.07;11.10;;;1.10;73.20;;;;;;5042966;28;20485;-45
2022/03/11 01:34:31;;;;;;;25.83;13.73;;;0.80;73.20;;;;;;5043468;28;20490;-45
2022/03/11 01:36:58;;;;;;;23.67;14.93;;;0.70;73.70;;;;;;5046372;28;20497;-46
2022/03/11 01:39:25;;;;;;;28.20;14.40;;;0.70;73.90;;;;;;5041084;28;20489;-46
2022/03/11 01:41:53;;;;;;;29.30;16.37;;;0.70;73.70;;;;;;5041231;28;20840;-46
2022/03/11 01:44:20;;;;;;;30.17;13.60;;;0.80;73.80;;;;;;5029090;28;20478;-46
2022/03/11 01:46:47;;;;;;;37.37;16.43;;;0.80;73.80;;;;;;5039204;28;20721;-47
2022/03/11 01:49:13;;;;;;;13.90;10.50;;;0.70;74.30;;;;;;5036840;28;20528;-45
2022/03/11 01:51:42;;;;;;;27.77;14.13;;;0.70;74.50;;;;;;5040634;28;20629;-47
2022/03/11 01:54:10;;;;;;;19.50;11.87;;;0.70;74.00;;;;;;5042060;28;20484;-46
2022/03/11 01:56:39;;;;;;;19.90;11.17;;;0.80;73.60;;;;;;5041556;28;21351;-46
2022/03/11 01:59:10;;;;;;;19.90;11.30;;;0.80;73.70;;;;;;5037304;28;20470;-46
2022/03/11 02:01:36;;;;;;;20.37;11.23;;;0.80;73.70;;;;;;5041018;28;21034;-45
2022/03/11 02:04:04;;;;;;;36.73;13.57;;;0.80;73.30;;;;;;5040755;28;20480;-46
2022/03/11 02:06:31;;;;;;;23.90;13.20;;;0.70;73.10;;;;;;5041726;28;20531;-45
2022/03/11 02:08:59;;;;;;;16.00;10.17;;;0.50;73.90;;;;;;5035197;28;21048;-46
2022/03/11 02:11:26;;;;;;;26.60;12.60;;;0.40;74.50;;;;;;5041535;28;20502;-46
2022/03/11 02:13:54;;;;;;;18.30;10.73;;;0.50;74.70;;;;;;5041459;28;20486;-46
2022/03/11 02:16:24;;;;;;;17.27;9.17;;;0.50;74.40;;;;;;5042740;28;20482;-46
2022/03/11 02:18:51;;;;;;;28.43;11.93;;;0.40;74.10;;;;;;5035832;28;20883;-46
2022/03/11 02:21:19;;;;;;;19.40;9.97;;;0.50;74.00;;;;;;5039921;28;20482;-45
2022/03/11 02:23:49;;;;;;;17.37;10.43;;;0.40;74.30;;;;;;5039297;28;20478;-45
2022/03/11 02:26:17;;;;;;;23.40;10.13;;;0.40;74.90;;;;;;5037434;28;20487;-46
2022/03/11 02:28:44;;;;;;;15.30;8.90;;;0.40;74.80;;;;;;5038069;28;21039;-46
2022/03/11 02:31:11;;;;;;;18.43;11.47;;;0.50;74.90;;;;;;5039491;28;20489;-46
2022/03/11 02:33:38;;;;;;;25.73;9.53;;;0.50;74.30;;;;;;5034495;28;21182;-50
2022/03/11 02:36:06;;;;;;;14.77;8.80;;;0.50;74.00;;;;;;5041373;28;20509;-46
2022/03/11 02:38:33;;;;;;;14.33;9.80;;;;;;;;;;5035862;28;20495;-46
2022/03/11 02:41:01;;;;;;;15.20;9.07;;;0.50;74.10;;;;;;5041362;28;20482;-46
2022/03/11 02:43:28;;;;;;;16.50;9.50;;;0.40;74.20;;;;;;5040596;28;20482;-46
2022/03/11 02:45:55;;;;;;;13.97;8.93;;;0.40;74.00;;;;;;5039528;28;20498;-47
2022/03/11 02:48:22;;;;;;;17.40;9.07;;;0.40;74.00;;;;;;5037663;28;20488;-46
2022/03/11 02:50:49;;;;;;;16.27;10.57;;;0.40;73.80;;;;;;5046276;28;20517;-45
2022/03/11 02:53:16;;;;;;;26.60;12.07;;;;;;;;;;5045770;28;20489;-45
2022/03/11 02:55:43;;;;;;;24.20;12.20;;;0.40;73.10;;;;;;5034149;28;20485;-47
2022/03/11 02:58:11;;;;;;;47.53;24.03;;;0.30;73.90;;;;;;5050193;28;20618;-46
2022/03/11 03:00:37;;;;;;;32.13;14.43;;;0.20;74.50;;;;;;5040179;28;20486;-46
2022/03/11 03:03:05;;;;;;;29.37;14.33;;;0.20;74.70;;;;;;5044102;28;20836;-46
2022/03/11 03:05:31;;;;;;;60.57;26.20;;;0.20;74.60;;;;;;5044167;28;20972;-46
2022/03/11 03:07:58;;;;;;;57.40;27.73;;;0.10;74.60;;;;;;5037968;28;20482;-46
2022/03/11 03:10:25;;;;;;;44.63;21.87;;;0.10;74.30;;;;;;5045816;28;20482;-46
2022/03/11 03:12:52;;;;;;;30.63;16.67;;;0.10;74.30;;;;;;5043948;28;20480;-46
2022/03/11 03:15:20;;;;;;;26.60;14.80;;;0.20;74.20;;;;;;5043575;28;20473;-46
2022/03/11 03:17:47;;;;;;;27.63;12.60;;;0.20;73.80;;;;;;5040503;28;20675;-46
2022/03/11 03:20:14;;;;;;;28.07;12.90;;;0.20;74.00;;;;;;5043969;28;20485;-46
2022/03/11 03:22:41;;;;;;;37.10;13.50;;;0.20;74.30;;;;;;5044228;28;20481;-46
2022/03/11 03:25:09;;;;;;;24.80;13.27;;;0.20;74.60;;;;;;5045282;28;20481;-46
2022/03/11 03:27:36;;;;;;;23.33;11.83;;;0.20;74.50;;;;;;5040152;28;20494;-47
2022/03/11 03:30:03;;;;;;;26.40;12.67;;;0.20;74.50;;;;;;5046247;28;20513;-47
2022/03/11 03:32:31;;;;;;;27.00;12.60;;;0.20;74.00;;;;;;5038125;28;20490;-47
2022/03/11 03:34:58;;;;;;;24.43;12.10;;;0.10;73.60;;;;;;5044800;28;21177;-46
2022/03/11 03:37:25;;;;;;;32.43;14.30;;;0.00;73.90;;;;;;5044090;28;20484;-46
2022/03/11 03:39:52;;;;;;;21.27;13.40;;;-0.10;74.50;;;;;;5043062;28;20556;-46
2022/03/11 03:42:18;;;;;;;27.97;12.87;;;-0.10;74.60;;;;;;5044357;28;20904;-46
2022/03/11 03:44:45;;;;;;;19.27;12.23;;;-0.10;74.20;;;;;;5043235;28;20979;-46
2022/03/11 03:47:11;;;;;;;15.80;11.60;;;-0.10;74.20;;;;;;5039734;28;20885;-46
2022/03/11 03:49:39;;;;;;;19.17;11.03;;;-0.10;74.20;;;;;;5041504;28;20477;-48
2022/03/11 03:52:11;;;;;;;30.20;12.87;;;-0.10;74.80;;;;;;5039065;28;20480;-45
2022/03/11 03:54:38;;;;;;;22.30;11.77;;;-0.10;74.60;;;;;;5043854;28;20517;-47
2022/03/11 03:57:05;;;;;;;21.63;13.10;;;-0.10;74.30;;;;;;5042380;28;20471;-47
2022/03/11 03:59:32;;;;;;;27.20;14.60;;;0.00;73.90;;;;;;5042827;28;20957;-46
2022/03/11 04:01:59;;;;;;;29.03;14.93;;;0.00;73.90;;;;;;5041060;28;20509;-46
2022/03/11 04:04:25;;;;;;;20.50;12.57;;;0.00;74.30;;;;;;5042552;28;20558;-46
2022/03/11 04:06:54;;;;;;;26.23;15.10;;;0.00;75.00;;;;;;5042496;28;20480;-46
2022/03/11 04:09:20;;;;;;;17.30;11.43;;;-0.10;75.40;;;;;;5045312;28;20559;-46
2022/03/11 04:11:47;;;;;;;19.73;10.73;;;0.00;76.00;;;;;;5042030;28;21244;-46
2022/03/11 04:14:14;;;;;;;26.73;13.70;;;-0.10;75.10;;;;;;5045641;28;20512;-47
2022/03/11 04:16:41;;;;;;;20.70;12.53;;;-0.10;74.90;;;;;;5043788;28;20541;-46
2022/03/11 04:19:07;;;;;;;17.73;10.33;;;-0.20;74.90;;;;;;5039557;28;20489;-45
2022/03/11 04:21:35;;;;;;;21.50;11.83;;;-0.20;75.00;;;;;;5042129;28;20496;-46
2022/03/11 04:24:04;;;;;;;21.43;11.27;;;-0.20;74.60;;;;;;5044150;28;20484;-45
2022/03/11 04:26:31;;;;;;;16.07;11.17;;;-0.30;74.60;;;;;;5032493;28;20480;-45
2022/03/11 04:28:57;;;;;;;39.10;11.80;;;-0.30;74.90;;;;;;5031414;28;20560;-45
2022/03/11 04:31:24;;;;;;;20.17;11.40;;;-0.30;74.90;;;;;;5040805;28;21040;-46
2022/03/11 04:33:51;;;;;;;21.50;10.40;;;-0.30;74.60;;;;;;5042698;28;20577;-45
2022/03/11 04:36:18;;;;;;;19.57;10.07;;;-0.30;75.40;;;;;;5044130;28;21135;-45
2022/03/11 04:38:44;;;;;;;17.57;9.90;;;-0.40;75.70;;;;;;5039421;28;20482;-46
2022/03/11 04:41:12;;;;;;;18.00;11.10;;;-0.40;75.60;;;;;;5042444;28;20991;-46
2022/03/11 04:43:39;;;;;;;41.37;10.80;;;-0.40;75.30;;;;;;5040497;28;20517;-46
2022/03/11 04:46:06;;;;;;;18.80;11.03;;;-0.40;75.10;;;;;;5041958;28;20489;-46
2022/03/11 04:48:32;;;;;;;20.30;10.60;;;-0.30;75.10;;;;;;5040534;28;20547;-45
2022/03/11 04:50:59;;;;;;;20.97;10.93;;;-0.40;74.50;;;;;;5041621;28;20473;-46
2022/03/11 04:53:26;;;;;;;17.33;10.07;;;-0.40;74.80;;;;;;5042305;28;20486;-46
2022/03/11 04:55:53;;;;;;;13.77;8.80;;;-0.40;75.20;;;;;;5038032;28;20490;-46
2022/03/11 04:58:21;;;;;;;16.93;9.60;;;-0.50;75.80;;;;;;5039808;28;20507;-46
2022/03/11 05:00:48;;;;;;;16.37;10.47;;;-0.40;76.00;;;;;;5036574;28;20562;-46
2022/03/11 05:03:14;;;;;;;18.23;8.77;;;-0.40;75.70;;;;;;5039446;28;20480;-46
2022/03/11 05:05:41;;;;;;;16.17;8.43;;;-0.40;75.00;;;;;;5033993;28;20957;-46
2022/03/11 05:08:08;;;;;;;17.73;9.37;;;-0.40;74.80;;;;;;5040294;28;20477;-46
2022/03/11 05:10:34;;;;;;;13.93;8.90;;;-0.50;74.60;;;;;;5042033;28;20891;-51
2022/03/11 05:13:01;;;;;;;26.83;10.67;;;-0.50;74.30;;;;;;5042411;28;20889;-46
2022/03/11 05:15:29;;;;;;;16.67;9.87;;;-0.50;74.30;;;;;;5041422;28;20534;-46
2022/03/11 05:17:56;;;;;;;20.13;9.83;;;-0.50;74.60;;;;;;5038397;28;20613;-46
2022/03/11 05:20:23;;;;;;;11.73;8.93;;;-0.60;74.20;;;;;;5042171;28;21018;-45
2022/03/11 05:22:50;;;;;;;20.47;11.03;;;-0.60;74.20;;;;;;5041030;28;21045;-46
2022/03/11 05:25:17;;;;;;;19.70;10.60;;;-0.60;74.50;;;;;;5045071;28;20665;-47
2022/03/11 05:27:44;;;;;;;14.70;9.07;;;-0.60;74.20;;;;;;5034502;28;20571;-46
2022/03/11 05:30:11;;;;;;;17.37;8.90;;;-0.60;74.70;;;;;;5055340;28;20966;-45
2022/03/11 05:32:43;;;;;;;17.00;9.63;;;-0.60;74.60;;;;;;5041528;28;20542;-46
2022/03/11 05:35:11;;;;;;;24.87;10.10;;;-0.70;74.60;;;;;;5040885;28;20477;-46
2022/03/11 05:37:38;;;;;;;16.33;8.90;;;-0.70;74.60;;;;;;5047538;28;20476;-46
2022/03/11 05:40:06;;;;;;;19.33;9.87;;;-0.70;74.60;;;;;;5042363;28;20501;-45
2022/03/11 05:42:32;;;;;;;21.57;9.63;;;-0.80;74.60;;;;;;5043285;28;21358;-45
2022/03/11 05:44:59;;;;;;;20.50;10.43;;;-1.00;74.80;;;;;;5036655;28;21192;-45
2022/03/11 05:47:26;;;;;;;16.83;9.93;;;-1.20;75.50;;;;;;5031657;28;22106;-45
2022/03/11 05:49:55;;;;;;;21.10;8.80;;;-1.30;76.50;;;;;;5039164;28;20559;-46
2022/03/11 05:52:22;;;;;;;21.37;8.80;;;-1.20;76.60;;;;;;5039434;28;20487;-46
2022/03/11 05:54:48;;;;;;;11.13;8.13;;;-1.20;76.30;;;;;;5041586;28;21205;-46
2022/03/11 05:57:15;;;;;;;19.90;8.90;;;-1.10;76.00;;;;;;5040428;28;20480;-46
2022/03/11 05:59:42;;;;;;;18.50;9.90;;;-1.00;76.00;;;;;;5039346;28;20991;-46
2022/03/11 06:02:09;;;;;;;18.27;9.17;;;-0.90;76.20;;;;;;5041268;28;20804;-47
2022/03/11 06:04:36;;;;;;;26.63;10.83;;;-0.90;75.90;;;;;;5041472;28;20530;-45
2022/03/11 06:07:05;;;;;;;19.63;11.30;;;-0.80;76.00;;;;;;5037831;28;20499;-46
2022/03/11 06:09:31;;;;;;;25.40;10.60;;;-0.80;76.20;;;;;;5039704;28;20883;-46
2022/03/11 06:11:58;;;;;;;23.30;9.50;;;-0.80;76.40;;;;;;5040421;28;20515;-45
2022/03/11 06:14:25;;;;;;;17.40;9.27;;;-0.70;76.70;;;;;;5040353;28;20532;-45
2022/03/11 06:16:52;;;;;;;14.73;9.67;;;-0.70;76.80;;;;;;5038831;28;20481;-45
2022/03/11 06:19:18;;;;;;;25.80;10.70;;;-0.60;76.70;;;;;;5043386;28;20485;-46
2022/03/11 06:21:45;;;;;;;14.83;9.37;;;-0.50;76.00;;;;;;5040522;28;20497;-46
2022/03/11 06:24:13;;;;;;;16.30;8.27;;;-0.50;75.70;;;;;;5040476;28;20865;-46
2022/03/11 06:26:41;;;;;;;25.20;10.23;;;-0.50;76.30;;;;;;5038965;28;20504;-46
2022/03/11 06:29:07;;;;;;;20.30;9.30;;;-0.50;76.20;;;;;;5039559;28;20477;-46
2022/03/11 06:31:34;;;;;;;13.53;8.63;;;-0.50;75.80;;;;;;5040223;28;20476;-46
2022/03/11 06:34:01;;;;;;;21.10;9.40;;;-0.50;75.60;;;;;;5041262;28;20482;-46
2022/03/11 06:36:28;;;;;;;15.07;9.17;;;-0.50;76.10;;;;;;5041077;28;21213;-46
2022/03/11 06:38:55;;;;;;;17.73;9.53;;;-0.50;76.80;;;;;;5038986;28;20515;-45
2022/03/11 06:41:23;;;;;;;25.23;10.73;;;-0.40;77.30;;;;;;5040997;28;20512;-46
2022/03/11 06:43:50;;;;;;;21.93;12.10;;;-0.30;77.50;;;;;;5033790;28;20537;-46
2022/03/11 06:46:17;;;;;;;21.93;14.43;;;-0.30;78.00;;;;;;5041330;28;20546;-46
2022/03/11 06:48:44;;;;;;;27.77;12.63;;;-0.10;78.30;;;;;;5042441;28;20554;-47
2022/03/11 06:51:11;;;;;;;18.83;11.30;;;0.00;78.30;;;;;;5055989;28;20894;-46
2022/03/11 06:53:37;;;;;;;19.90;10.50;;;0.10;78.30;;;;;;5039923;28;20488;-45
2022/03/11 06:56:05;;;;;;;27.73;12.33;;;0.30;78.90;;;;;;5039210;28;20997;-46
2022/03/11 06:58:34;;;;;;;22.73;12.17;;;0.80;80.50;;;;;;5037369;28;20480;-46
2022/03/11 07:01:01;;;;;;;24.80;13.80;;;1.60;81.40;;;;;;5037882;28;20560;-47
2022/03/11 07:03:27;;;;;;;31.93;14.67;;;3.00;79.70;;;;;;5033386;28;20488;-46
2022/03/11 07:05:54;;;;;;;17.40;11.03;;;4.00;77.80;;;;;;5044039;28;20563;-46
2022/03/11 07:08:21;;;;;;;19.30;12.93;;;5.10;75.50;;;;;;5034962;28;20501;-46
2022/03/11 07:10:48;;;;;;;26.00;11.47;;;6.20;69.60;;;;;;5046451;28;20547;-46
2022/03/11 07:13:14;;;;;;;21.43;10.73;;;6.90;69.60;;;;;;5041084;28;20965;-47
2022/03/11 07:15:43;;;;;;;23.63;11.80;;;8.10;68.90;;;;;;5040563;28;20494;-48
2022/03/11 07:18:10;;;;;;;18.70;11.03;;;9.00;67.30;;;;;;5039281;28;20567;-49
2022/03/11 07:20:36;;;;;;;19.17;11.27;;;9.40;66.90;;;;;;5026304;28;20457;-47
2022/03/11 07:23:03;;;;;;;23.00;12.53;;;10.10;65.70;;;;;;5040058;28;20878;-47
2022/03/11 07:25:30;;;;;;;25.83;15.47;;;11.80;61.90;;;;;;5040071;28;20961;-47
2022/03/11 07:27:57;;;;;;;23.07;14.40;;;11.80;61.90;;;;;;5039908;28;20602;-47
2022/03/11 07:30:24;;;;;;;20.30;12.47;;;12.60;60.80;;;;;;5041432;28;20945;-47
2022/03/11 07:32:53;;;;;;;20.90;13.23;;;13.60;58.60;;;;;;5059194;28;20552;-47
2022/03/11 07:35:20;;;;;;;18.10;13.07;;;13.70;59.10;;;;;;5039301;28;20504;-47
2022/03/11 07:37:47;;;;;;;22.67;12.90;;;14.10;58.60;;;;;;5041154;28;20493;-48
2022/03/11 07:40:14;;;;;;;21.90;13.07;;;14.70;56.60;;;;;;5041329;28;20471;-47
2022/03/11 07:42:43;;;;;;;17.40;13.07;;;14.70;57.00;;;;;;5042624;28;20481;-47
2022/03/11 07:45:12;;;;;;;22.40;13.70;;;15.40;56.10;;;;;;5044259;28;20485;-47
2022/03/11 07:47:40;;;;;;;19.40;12.70;;;15.40;56.60;;;;;;5041189;28;20491;-49
2022/03/11 07:50:10;;;;;;;19.67;12.97;;;15.70;56.30;;;;;;5044322;28;20481;-47
2022/03/11 07:52:38;;;;;;;19.73;14.47;;;16.40;55.50;;;;;;5040692;28;20510;-47
2022/03/11 07:55:06;;;;;;;24.33;15.30;;;16.40;56.10;;;;;;5044440;28;20486;-47
2022/03/11 07:57:35;;;;;;;24.63;14.97;;;16.80;55.90;;;;;;5042093;28;20483;-47
2022/03/11 08:00:04;;;;;;;22.70;16.47;;;17.30;55.50;;;;;;5045941;28;20996;-47
2022/03/11 08:02:32;;;;;;;19.87;15.50;;;17.30;55.90;;;;;;5042880;28;20800;-47
2022/03/11 08:04:59;;;;;;;25.93;15.00;;;17.60;54.10;;;;;;5043413;28;20492;-48
2022/03/11 08:07:27;;;;;;;32.07;17.70;;;17.70;53.70;;;;;;5041897;28;20546;-47
2022/03/11 08:09:54;;;;;;;21.20;15.20;;;17.70;54.30;;;;;;5042387;28;20498;-47
2022/03/11 08:12:20;;;;;;;23.90;18.20;;;17.80;53.00;;;;;;5042496;28;20981;-47
2022/03/11 08:14:47;;;;;;;38.87;18.67;;;17.80;52.90;;;;;;5044186;28;21074;-47
2022/03/11 08:17:15;;;;;;;25.67;17.77;;;17.80;53.60;;;;;;5040802;28;20490;-48
2022/03/11 08:19:42;;;;;;;27.10;16.97;;;17.50;52.80;;;;;;5039240;28;20498;-47
2022/03/11 08:22:11;;;;;;;26.27;18.37;;;17.30;53.20;;;;;;5041132;28;20470;-47
2022/03/11 08:24:40;;;;;;;24.60;17.50;;;17.00;53.20;;;;;;5034414;28;20487;-47
2022/03/11 08:27:07;;;;;;;32.10;20.50;;;17.00;53.80;;;;;;5039011;28;20483;-47
2022/03/11 08:29:34;;;;;;;29.63;18.13;;;16.50;52.90;;;;;;5045982;28;20491;-47
2022/03/11 08:32:02;;;;;;;28.83;19.27;;;16.30;53.70;;;;;;5047756;28;20543;-47
2022/03/11 08:34:29;;;;;;;27.87;18.90;;;16.20;54.30;;;;;;5039925;28;20561;-47
2022/03/11 08:36:56;;;;;;;28.70;18.10;;;15.90;54.60;;;;;;5041280;28;20909;-47
2022/03/11 08:39:22;;;;;;;27.90;19.17;;;15.90;54.70;;;;;;5062667;28;20483;-47
2022/03/11 08:41:50;;;;;;;29.43;17.53;;;15.70;55.10;;;;;;5042187;28;20485;-47
2022/03/11 08:44:17;;;;;;;28.30;18.20;;;15.40;55.00;;;;;;5045849;28;20475;-49
2022/03/11 08:50:07;;;;;;;29.47;19.00;;;15.20;54.90;;;;;;4994236;28;20520;-47
2022/03/11 08:52:34;;;;;;;35.03;19.27;;;14.90;54.80;;;;;;5029495;28;20509;-47
2022/03/11 08:55:01;;;;;;;28.13;17.63;;;14.90;55.40;;;;;;5028436;28;20497;-48
2022/03/11 08:57:29;;;;;;;26.07;17.87;;;14.90;56.60;;;;;;5043623;28;20493;-48
2022/03/11 08:59:56;;;;;;;35.40;19.23;;;14.90;56.00;;;;;;5035738;28;20483;-48
2022/03/11 09:02:23;;;;;;;23.50;17.00;;;14.90;56.80;;;;;;5029667;28;20482;-47
2022/03/11 09:04:50;;;;;;;26.47;17.17;;;15.00;56.20;;;;;;5028266;28;20926;-48
2022/03/11 09:07:17;;;;;;;31.30;18.47;;;15.00;55.80;;;;;;5052107;28;20484;-48
2022/03/11 09:09:44;;;;;;;31.67;17.13;;;15.00;56.50;;;;;;5031227;28;20486;-48
2022/03/11 09:12:10;;;;;;;31.67;18.57;;;15.00;55.20;;;;;;5046939;28;20540;-48
2022/03/11 09:14:39;;;;;;;31.63;17.80;;;15.20;56.50;;;;;;5046346;28;20500;-47
2022/03/11 09:17:06;;;;;;;25.17;17.30;;;15.10;56.30;;;;;;5043405;28;20579;-48
2022/03/11 09:19:32;;;;;;;25.00;16.97;;;15.20;55.40;;;;;;5047818;28;20562;-47
2022/03/11 09:22:00;;;;;;;26.43;17.33;;;15.30;56.00;;;;;;5047767;28;20475;-48
2022/03/11 09:24:27;;;;;;;24.10;16.60;;;15.30;56.60;;;;;;5045076;28;20921;-48
2022/03/11 09:26:53;;;;;;;24.63;16.70;;;15.40;56.30;;;;;;5045138;28;20477;-48
2022/03/11 09:29:20;;;;;;;23.57;16.87;;;15.60;54.60;;;;;;5041487;28;20492;-48
2022/03/11 09:31:48;;;;;;;28.50;16.03;;;15.60;55.10;;;;;;5044816;28;20570;-48
2022/03/11 09:34:15;;;;;;;25.30;16.67;;;15.70;54.30;;;;;;5044394;28;20724;-47
2022/03/11 09:36:42;;;;;;;25.07;15.63;;;15.70;53.20;;;;;;5042010;28;21343;-48
2022/03/11 09:39:08;;;;;;;24.03;16.03;;;15.70;54.00;;;;;;5042714;28;20528;-48
2022/03/11 09:41:37;;;;;;;23.60;16.00;;;15.60;51.90;;;;;;5043315;28;20590;-47
2022/03/11 09:44:04;;;;;;;23.20;15.60;;;15.80;54.50;;;;;;5041577;28;20478;-48
2022/03/11 09:46:33;;;;;;;22.83;14.20;;;15.60;50.70;;;;;;5041783;28;20494;-49
2022/03/11 09:49:02;;;;;;;20.00;13.43;;;15.00;49.40;;;;;;5041688;28;20578;-48
2022/03/11 09:51:30;;;;;;;19.80;14.60;;;15.30;53.60;;;;;;5068259;28;20491;-48
2022/03/11 09:53:57;;;;;;;26.83;16.50;;;15.40;54.10;;;;;;5032341;28;20865;-48
2022/03/11 09:56:25;;;;;;;23.00;14.40;;;15.60;53.10;;;;;;5042968;28;20482;-48
2022/03/11 09:58:52;;;;;;;22.00;13.93;;;15.00;49.40;;;;;;5040934;28;20549;-49
2022/03/11 10:01:18;;;;;;;23.93;15.77;;;15.20;54.80;;;;;;5043697;28;20509;-48
2022/03/11 10:03:45;;;;;;;23.80;15.90;;;;;;;;;;5044295;28;20479;-49
2022/03/11 10:06:13;;;;;;;19.50;14.20;;;15.90;53.40;;;;;;5042442;28;20864;-48
2022/03/11 10:08:43;;;;;;;12.40;7.07;;;15.60;49.20;;;;;;5041986;28;20835;-48
2022/03/11 10:11:20;;;;;;;28.33;15.83;;;15.40;50.70;;;;;;5041938;28;20612;-48
2022/03/11 10:13:48;;;;;;;19.30;13.37;;;15.50;52.50;;;;;;5038208;28;20501;-48
2022/03/11 10:16:19;;;;;;;25.47;14.03;;;15.70;51.20;;;;;;5038870;28;20508;-48
2022/03/11 10:18:57;;;;;;;26.93;14.40;;;15.50;48.90;;;;;;5041611;28;20509;-48
2022/03/11 10:21:32;;;;;;;21.40;12.60;;;15.50;50.50;;;;;;5044193;28;20483;-48
2022/03/11 10:24:01;;;;;;;25.80;12.17;;;15.00;49.30;;;;;;5035858;28;21022;-48
2022/03/11 10:26:35;;;;;;;22.97;14.13;;;15.00;50.90;;;;;;5043555;28;20483;-47
2022/03/11 10:29:05;;;;;;;18.90;12.57;;;15.10;51.70;;;;;;5037272;28;20530;-48
2022/03/11 10:31:33;;;;;;;21.87;13.80;;;15.30;50.70;;;;;;5030551;28;20726;-48
2022/03/11 10:34:18;;;;;;;31.57;19.20;;;15.50;51.50;;;;;;5022345;28;20849;-48
2022/03/11 10:36:57;;;;;;;23.70;14.97;;;15.70;51.20;;;;;;5030003;28;20891;-48
2022/03/11 10:39:26;;;;;;;22.23;14.30;;;15.60;50.10;;;;;;5038393;28;20482;-49
2022/03/11 10:41:53;;;;;;;25.90;17.00;;;15.50;49.50;;;;;;5031090;28;21022;-48
2022/03/11 10:44:23;;;;;;;21.10;15.17;;;15.50;50.40;;;;;;5047106;28;20501;-48
2022/03/11 10:46:50;;;;;;;25.67;16.13;;;15.70;53.00;;;;;;5051913;28;20490;-48
2022/03/11 10:49:32;;;;;;;28.70;14.60;;;15.70;53.60;;;;;;5038110;28;20757;-48
2022/03/11 10:52:01;;;;;;;22.07;15.57;;;15.90;51.70;;;;;;5050701;28;20580;-48
2022/03/11 10:54:29;;;;;;;26.03;15.67;;;15.80;51.00;;;;;;5060054;28;20733;-48
2022/03/11 10:56:57;;;;;;;23.33;15.53;;;15.90;51.90;;;;;;5034059;28;20516;-48
2022/03/11 10:59:28;;;;;;;18.90;10.93;;;16.10;52.40;;;;;;5038920;28;20834;-48
2022/03/11 11:01:56;;;;;;;22.67;14.67;;;16.30;51.40;;;;;;5053989;28;20825;-48
2022/03/11 11:04:24;;;;;;;23.90;15.07;;;16.50;51.90;;;;;;5046801;28;20478;-48
2022/03/11 11:06:51;;;;;;;23.07;15.07;;;16.30;49.60;;;;;;5047423;28;20479;-48
2022/03/11 11:09:22;;;;;;;32.17;18.50;;;16.30;50.30;;;;;;5046810;28;20483;-49
2022/03/11 11:11:49;;;;;;;15.27;10.10;;;16.30;50.60;;;;;;5042164;28;21098;-49
2022/03/11 11:14:16;;;;;;;31.13;13.37;;;16.60;51.50;;;;;;5046639;28;20474;-48
2022/03/11 11:16:44;;;;;;;23.43;15.70;;;16.80;51.10;;;;;;5034903;28;21317;-48
2022/03/11 11:19:13;;;;;;;22.67;15.13;;;16.80;49.10;;;;;;5052974;28;20881;-49
2022/03/11 11:21:41;;;;;;;27.23;14.40;;;16.40;47.60;;;;;;5051420;28;20824;-52
2022/03/11 11:24:12;;;;;;;17.07;12.70;;;16.10;48.30;;;;;;5070727;28;20489;-48
2022/03/11 11:26:44;;;;;;;18.87;11.50;;;16.00;50.00;;;;;;5051892;28;20471;-48
2022/03/11 11:29:12;;;;;;;19.27;14.13;;;16.30;51.30;;;;;;5050380;28;20470;-48
2022/03/11 11:31:41;;;;;;;24.97;14.57;;;16.30;49.10;;;;;;5072830;28;20586;-48
2022/03/11 11:34:24;;;;;;;26.50;17.70;;;16.50;49.80;;;;;;5048803;28;20485;-46
2022/03/11 11:36:51;;;;;;;31.70;17.93;;;16.70;49.90;;;;;;5046858;28;20554;-47
2022/03/11 11:39:17;;;;;;;29.37;16.80;;;16.80;49.80;;;;;;5051560;28;20478;-47
2022/03/11 11:41:53;;;;;;;40.87;26.33;;;17.10;48.60;;;;;;5048909;28;20756;-48
2022/03/11 11:44:32;;;;;;;42.83;30.17;;;17.30;48.30;;;;;;5048673;28;20554;-49
2022/03/11 11:47:08;;;;;;;44.13;32.30;;;17.00;47.20;;;;;;5042374;28;20916;-48
2022/03/11 11:49:41;;;;;;;33.90;25.70;;;17.20;49.20;;;;;;5037286;28;20486;-48
2022/03/11 11:52:11;;;;;;;37.77;27.13;;;17.10;47.80;;;;;;5048016;28;20477;-48
2022/03/11 11:54:42;;;;;;;36.50;25.40;;;16.90;47.30;;;;;;5042541;28;20482;-47
2022/03/11 11:57:20;;;;;;;26.17;20.03;;;16.80;50.00;;;;;;5062767;28;20478;-48
2022/03/11 11:59:46;;;;;;;25.23;17.07;;;17.10;51.20;;;;;;5040734;28;20505;-48
2022/03/11 12:02:37;;;;;;;28.30;17.30;;;17.20;49.80;;;;;;5040484;28;20467;-47
2022/03/11 12:05:53;;;;;;;40.97;26.40;;;17.20;49.40;;;;;;5032109;28;21059;-48
2022/03/11 12:08:49;;;;;;;40.73;27.50;;;17.40;49.20;;;;;;5023860;28;20704;-48
2022/03/11 12:11:38;;;;;;;25.50;15.30;;;17.70;50.30;;;;;;5038929;28;20973;-47
2022/03/11 12:14:06;;;;;;;22.40;16.60;;;17.90;51.30;;;;;;5039584;28;20498;-48
2022/03/11 12:17:01;;;;;;;26.77;14.57;;;17.90;50.00;;;;;;5042288;28;20483;-48
2022/03/11 12:19:39;;;;;;;23.23;9.83;;;17.90;48.00;;;;;;5040146;28;20957;-47
2022/03/11 12:22:23;;;;;;;16.47;11.27;;;17.60;48.10;;;;;;5039698;28;21303;-47
2022/03/11 12:24:58;;;;;;;22.07;15.23;;;17.70;50.50;;;;;;5041361;28;20600;-47
2022/03/11 12:27:58;;;;;;;20.93;16.30;;;18.00;51.60;;;;;;5039298;28;20471;-51
2022/03/11 12:30:26;;;;;;;22.33;13.93;;;18.50;50.90;;;;;;5031494;28;21071;-49
2022/03/11 12:32:53;;;;;;;33.93;23.90;;;18.10;44.90;;;;;;5039473;28;20471;-48
2022/03/11 12:35:21;;;;;;;43.40;31.53;;;17.80;45.40;;;;;;5043872;28;20575;-49
2022/03/11 12:37:48;;;;;;;30.13;19.90;;;17.60;45.80;;;;;;5039028;28;20475;-48
2022/03/11 12:40:15;;;;;;;27.27;21.70;;;17.40;46.80;;;;;;5040438;28;20538;-48
2022/03/11 12:42:43;;;;;;;21.27;15.27;;;17.60;49.80;;;;;;5059766;28;20490;-48